createdAt,value
2023-04-14T00:00:20.690Z,92161.25
2023-04-14T00:01:52.446Z,92158.22
2023-04-14T00:03:24.336Z,92157.88
2023-04-14T00:04:56.942Z,92162.72
2023-04-14T00:06:28.489Z,92153.84
2023-04-14T00:08:00.188Z,92144.19
2023-04-14T00:09:32.137Z,92150.00
2023-04-14T00:11:03.698Z,92144.97
2023-04-14T00:12:35.189Z,92145.31
2023-04-14T00:14:07.215Z,92147.56
2023-04-14T00:15:40.072Z,92146.78
2023-04-14T00:17:12.044Z,92139.47
2023-04-14T00:18:43.613Z,92138.34
2023-04-14T00:20:15.259Z,92142.25
2023-04-14T00:21:47.354Z,92149.59
2023-04-14T00:23:19.521Z,92138.34
2023-04-14T00:24:51.376Z,92141.38
2023-04-14T00:26:23.142Z,92149.38
2023-04-14T00:27:54.864Z,92144.41
2023-04-14T00:29:27.594Z,92146.66
2023-04-14T00:30:59.310Z,92139.03
2023-04-14T00:32:31.141Z,92136.47
2023-04-14T00:34:02.993Z,92136.13
2023-04-14T00:35:45.385Z,92130.72
2023-04-14T00:37:17.691Z,92126.13
2023-04-14T00:38:50.309Z,92122.28
2023-04-14T00:40:29.763Z,92126.22
2023-04-14T00:42:01.955Z,92127.78
2023-04-14T00:43:33.669Z,92134.06
2023-04-14T00:45:08.394Z,92132.50
2023-04-14T00:46:40.837Z,92136.66
2023-04-14T00:48:12.404Z,92140.41
2023-04-14T00:49:44.291Z,92128.72
2023-04-14T00:51:16.119Z,92129.50
2023-04-14T00:52:48.363Z,92135.44
2023-04-14T00:54:20.966Z,92129.34
2023-04-14T00:55:52.550Z,92134.16
2023-04-14T00:57:24.268Z,92130.25
2023-04-14T00:59:09.492Z,92130.72
2023-04-14T01:00:41.129Z,92123.72
2023-04-14T01:02:14.842Z,92129.91
2023-04-14T01:03:46.891Z,92127.63
2023-04-14T01:05:18.864Z,92122.34
2023-04-14T01:06:50.525Z,92121.44
2023-04-14T01:08:22.119Z,92123.72
2023-04-14T01:09:54.717Z,92127.22
2023-04-14T01:11:47.223Z,92122.16
2023-04-14T01:13:26.581Z,92121.72
2023-04-14T01:15:16.896Z,92131.94
2023-04-14T01:16:50.810Z,92127.34
2023-04-14T01:18:40.655Z,92135.69
2023-04-14T01:20:19.328Z,92129.41
2023-04-14T01:21:52.658Z,92142.56
2023-04-14T01:23:26.804Z,92136.50
2023-04-14T01:25:16.945Z,92123.50
2023-04-14T01:26:49.625Z,92126.72
2023-04-14T01:28:24.008Z,92123.03
2023-04-14T01:30:14.507Z,92127.66
2023-04-14T01:31:46.436Z,92134.59
2023-04-14T01:33:19.167Z,92124.72
2023-04-14T01:34:51.267Z,92128.41
2023-04-14T01:36:27.245Z,92136.16
2023-04-14T01:37:59.615Z,92133.94
2023-04-14T01:39:33.195Z,92138.66
2023-04-14T01:41:05.870Z,92135.50
2023-04-14T01:42:37.768Z,92126.41
2023-04-14T01:44:09.274Z,92130.41
2023-04-14T01:45:44.731Z,92124.72
2023-04-14T01:47:16.296Z,92119.97
2023-04-14T01:48:49.090Z,92120.75
2023-04-14T01:50:20.973Z,92123.59
2023-04-14T01:51:53.737Z,92106.75
2023-04-14T01:53:26.004Z,92111.91
2023-04-14T01:54:57.536Z,92111.59
2023-04-14T01:56:29.160Z,92109.56
2023-04-14T01:58:00.667Z,92112.25
2023-04-14T01:59:32.728Z,92116.53
2023-04-14T02:01:04.855Z,92113.94
2023-04-14T02:02:38.093Z,92117.09
2023-04-14T02:04:10.076Z,92115.97
2023-04-14T02:05:42.806Z,92125.63
2023-04-14T02:07:14.346Z,92120.69
2023-04-14T02:08:46.084Z,92113.50
2023-04-14T02:10:18.350Z,92113.72
2023-04-14T02:11:49.973Z,92114.94
2023-04-14T02:13:22.275Z,92118.78
2023-04-14T02:14:53.975Z,92115.63
2023-04-14T02:16:26.031Z,92131.78
2023-04-14T02:17:58.437Z,92113.16
2023-04-14T02:19:30.119Z,92120.91
2023-04-14T02:21:01.622Z,92119.00
2023-04-14T02:22:33.210Z,92120.69
2023-04-14T02:24:04.957Z,92106.31
2023-04-14T02:25:36.773Z,92104.84
2023-04-14T02:27:08.927Z,92099.34
2023-04-14T02:28:46.294Z,92100.34
2023-04-14T02:30:19.718Z,92109.03
2023-04-14T02:32:01.181Z,92096.53
2023-04-14T02:33:34.124Z,92101.25
2023-04-14T02:35:07.407Z,92101.25
2023-04-14T02:36:59.270Z,92099.22
2023-04-14T02:38:38.364Z,92104.97
2023-04-14T02:40:16.363Z,92105.19
2023-04-14T02:41:48.669Z,92105.28
2023-04-14T02:43:20.315Z,92082.84
2023-04-14T02:44:52.273Z,92086.78
2023-04-14T02:46:24.002Z,92080.38
2023-04-14T02:47:56.369Z,92068.81
2023-04-14T02:49:27.923Z,92078.47
2023-04-14T02:50:59.545Z,92070.84
2023-04-14T02:52:31.655Z,92060.06
2023-04-14T02:54:03.995Z,92062.75
2023-04-14T02:55:35.579Z,92052.09
2023-04-14T02:57:07.562Z,92065.09
2023-04-14T02:58:39.657Z,92069.38
2023-04-14T03:00:11.393Z,92086.34
2023-04-14T03:01:43.623Z,92083.84
2023-04-14T03:03:15.576Z,92084.06
2023-04-14T03:04:47.196Z,92084.19
2023-04-14T03:06:18.781Z,92083.72
2023-04-14T03:07:51.147Z,92075.56
2023-04-14T03:09:22.652Z,92065.44
2023-04-14T03:10:54.174Z,92059.59
2023-04-14T03:12:25.920Z,92059.38
2023-04-14T03:13:57.485Z,92055.78
2023-04-14T03:15:29.035Z,92049.47
2023-04-14T03:17:00.535Z,92039.91
2023-04-14T03:18:32.042Z,92035.78
2023-04-14T03:20:03.775Z,92031.28
2023-04-14T03:21:35.395Z,92030.59
2023-04-14T03:23:07.901Z,92009.94
2023-04-14T03:24:40.312Z,92005.25
2023-04-14T03:26:12.635Z,91993.25
2023-04-14T03:27:44.189Z,91985.50
2023-04-14T03:29:16.020Z,91975.06
2023-04-14T03:30:48.022Z,91980.78
2023-04-14T03:32:19.664Z,91966.53
2023-04-14T03:33:56.001Z,91972.94
2023-04-14T03:35:27.572Z,91976.84
2023-04-14T03:36:59.081Z,91956.22
2023-04-14T03:38:30.647Z,91956.34
2023-04-14T03:40:04.502Z,91961.47
2023-04-14T03:41:37.824Z,91951.84
2023-04-14T03:43:13.579Z,91958.47
2023-04-14T03:44:51.949Z,91957.13
2023-04-14T03:46:24.472Z,91959.25
2023-04-14T03:47:58.247Z,91960.81
2023-04-14T03:49:30.586Z,91960.63
2023-04-14T03:51:02.813Z,91968.22
2023-04-14T03:52:34.884Z,91982.81
2023-04-14T03:54:06.576Z,91986.16
2023-04-14T03:55:38.097Z,91984.84
2023-04-14T03:57:10.790Z,91993.56
2023-04-14T03:58:43.055Z,91992.00
2023-04-14T04:00:15.382Z,91993.91
2023-04-14T04:01:48.241Z,91991.78
2023-04-14T04:03:20.059Z,91988.16
2023-04-14T04:04:52.052Z,91988.16
2023-04-14T04:06:23.879Z,91997.47
2023-04-14T04:07:55.896Z,91999.72
2023-04-14T04:09:27.491Z,92014.16
2023-04-14T04:10:59.132Z,92024.81
2023-04-14T04:12:30.881Z,92019.31
2023-04-14T04:14:03.458Z,92019.53
2023-04-14T04:15:35.184Z,92021.50
2023-04-14T04:17:07.796Z,92021.09
2023-04-14T04:18:39.604Z,92027.13
2023-04-14T04:20:14.471Z,92043.38
2023-04-14T04:21:46.131Z,92045.53
2023-04-14T04:23:50.449Z,92046.44
2023-04-14T04:31:19.263Z,92045.09
2023-04-14T04:32:51.427Z,92042.97
2023-04-14T04:34:23.579Z,92033.59
2023-04-14T04:35:58.211Z,92028.66
2023-04-14T04:39:18.932Z,92018.13
2023-04-14T04:40:51.152Z,92018.13
2023-04-14T04:42:22.734Z,92034.72
2023-04-14T04:43:54.347Z,92038.53
2023-04-14T04:45:40.388Z,92033.94
2023-04-14T04:47:12.348Z,92021.94
2023-04-14T04:48:48.501Z,92030.78
2023-04-14T04:50:29.372Z,92025.41
2023-04-14T04:52:00.960Z,92027.44
2023-04-14T04:53:35.438Z,92022.97
2023-04-14T04:55:07.342Z,92009.94
2023-04-14T04:56:40.764Z,92005.81
2023-04-14T04:58:12.689Z,92014.78
2023-04-14T04:59:47.923Z,92003.34
2023-04-14T05:01:19.786Z,92006.13
2023-04-14T05:02:51.584Z,92005.03
2023-04-14T05:04:23.321Z,92010.88
2023-04-14T05:05:58.969Z,91996.41
2023-04-14T05:07:30.457Z,92005.81
2023-04-14T05:09:02.129Z,91998.19
2023-04-14T05:10:35.067Z,92000.63
2023-04-14T05:12:06.741Z,92011.19
2023-04-14T05:13:38.248Z,91999.44
2023-04-14T05:15:10.139Z,91994.28
2023-04-14T05:16:41.734Z,91993.59
2023-04-14T05:18:16.158Z,91977.66
2023-04-14T05:19:57.754Z,91986.38
2023-04-14T05:21:32.910Z,91977.28
2023-04-14T05:23:04.512Z,91980.63
2023-04-14T05:24:36.270Z,91981.94
2023-04-14T05:27:46.140Z,91956.91
2023-04-14T05:29:18.361Z,91951.50
2023-04-14T05:30:51.438Z,91950.25
2023-04-14T05:32:23.089Z,91943.25
2023-04-14T05:33:54.669Z,91936.47
2023-04-14T05:35:26.625Z,91933.38
2023-04-14T05:36:58.130Z,91929.41
2023-04-14T05:38:29.714Z,91926.88
2023-04-14T05:40:01.515Z,91918.19
2023-04-14T05:41:33.180Z,91918.38
2023-04-14T05:43:04.796Z,91916.56
2023-04-14T05:44:36.631Z,91901.66
2023-04-14T05:46:08.223Z,91914.66
2023-04-14T05:47:50.821Z,91902.63
2023-04-14T05:51:39.748Z,91903.47
2023-04-14T05:53:12.275Z,91892.41
2023-04-14T05:54:43.949Z,91866.78
2023-04-14T05:56:15.664Z,91878.50
2023-04-14T05:57:47.324Z,91870.50
2023-04-14T05:59:19.155Z,91873.53
2023-04-14T06:00:50.960Z,91877.47
2023-04-14T06:02:23.242Z,91883.66
2023-04-14T06:03:55.226Z,91889.28
2023-04-14T06:05:29.398Z,91881.31
2023-04-14T06:07:17.960Z,91881.91
2023-04-14T06:08:49.627Z,91882.13
2023-04-14T06:10:21.236Z,91888.91
2023-04-14T06:11:53.062Z,91892.06
2023-04-14T06:13:31.995Z,91885.28
2023-04-14T06:15:05.778Z,91887.34
2023-04-14T06:16:37.488Z,91893.25
2023-04-14T06:18:09.692Z,91884.13
2023-04-14T06:19:55.512Z,91886.06
2023-04-14T06:21:32.213Z,91887.41
2023-04-14T06:23:07.935Z,91858.31
2023-04-14T06:24:41.048Z,91856.75
2023-04-14T06:26:28.406Z,91868.75
2023-04-14T06:28:06.895Z,91861.78
2023-04-14T06:29:38.501Z,91862.44
2023-04-14T06:31:10.795Z,91845.44
2023-04-14T06:32:42.580Z,91855.03
2023-04-14T06:34:14.390Z,91855.81
2023-04-14T06:37:32.342Z,91855.44
2023-04-14T06:39:05.085Z,91856.22
2023-04-14T06:40:36.730Z,91863.06
2023-04-14T06:42:08.397Z,91863.34
2023-04-14T06:43:43.046Z,91847.06
2023-04-14T06:45:17.659Z,91838.88
2023-04-14T06:47:03.331Z,91824.94
2023-04-14T06:48:34.978Z,91819.25
2023-04-14T06:50:08.094Z,91819.72
2023-04-14T06:51:40.080Z,91817.50
2023-04-14T06:53:13.061Z,91810.63
2023-04-14T06:54:44.858Z,91797.47
2023-04-14T06:56:17.621Z,91811.50
2023-04-14T06:57:49.623Z,91815.81
2023-04-14T06:59:23.503Z,91812.34
2023-04-14T07:00:57.934Z,91805.06
2023-04-14T07:02:30.158Z,91810.47
2023-04-14T07:04:05.066Z,91822.94
2023-04-14T07:05:50.808Z,91819.13
2023-04-14T07:07:25.236Z,91792.56
2023-04-14T07:08:57.205Z,91787.69
2023-04-14T07:10:33.416Z,91781.56
2023-04-14T07:12:07.874Z,91795.53
2023-04-14T07:13:40.089Z,91790.88
2023-04-14T07:15:17.962Z,91780.50
2023-04-14T07:16:50.548Z,91775.97
2023-04-14T07:18:28.280Z,91763.72
2023-04-14T07:20:16.302Z,91759.50
2023-04-14T07:22:07.988Z,91772.00
2023-04-14T07:23:41.670Z,91757.41
2023-04-14T07:25:16.452Z,91773.78
2023-04-14T07:28:58.106Z,91781.16
2023-04-14T07:30:33.879Z,91785.94
2023-04-14T07:32:08.881Z,91794.13
2023-04-14T07:33:42.636Z,91806.56
2023-04-14T07:35:32.211Z,91809.31
2023-04-14T07:37:06.434Z,91806.31
2023-04-14T07:39:08.272Z,91821.22
2023-04-14T07:43:02.159Z,91827.81
2023-04-14T07:44:51.877Z,91819.38
2023-04-14T07:46:23.739Z,91824.88
2023-04-14T07:48:18.949Z,91835.38
2023-04-14T07:50:17.725Z,91813.56
2023-04-14T07:52:17.481Z,91825.44
2023-04-14T07:55:54.985Z,91808.97
2023-04-14T07:57:38.137Z,91800.47
2023-04-14T08:01:10.275Z,91813.75
2023-04-14T08:03:19.222Z,91813.03
2023-04-14T08:05:20.411Z,91821.41
2023-04-14T08:06:52.722Z,91808.13
2023-04-14T08:08:30.588Z,91815.84
2023-04-14T08:12:42.116Z,91807.72
2023-04-14T08:14:51.689Z,91819.78
2023-04-14T08:16:26.063Z,91817.03
2023-04-14T08:17:58.327Z,91813.44
2023-04-14T08:23:22.798Z,91823.31
2023-04-14T08:25:31.504Z,91826.41
2023-04-14T08:27:22.307Z,91821.00
2023-04-14T08:28:57.228Z,91815.28
2023-04-14T08:33:03.194Z,91832.56
2023-04-14T08:35:39.344Z,91852.75
2023-04-14T08:37:05.027Z,91849.97
2023-04-14T08:53:15.936Z,91899.41
2023-04-14T08:57:30.665Z,91837.31
2023-04-14T08:59:29.306Z,91861.03
2023-04-14T09:01:35.956Z,91852.94
2023-04-14T09:03:16.634Z,91832.78
2023-04-14T09:07:11.551Z,91829.69
2023-04-14T09:08:43.835Z,91839.16
2023-04-14T09:10:17.706Z,91865.09
2023-04-14T09:11:49.471Z,91870.16
2023-04-14T09:13:21.708Z,91850.38
2023-04-14T09:14:56.791Z,91851.50
2023-04-14T09:16:32.618Z,91854.50
2023-04-14T09:18:04.751Z,91839.81
2023-04-14T09:20:35.106Z,91867.13
2023-04-14T09:21:53.601Z,91867.03
2023-04-14T09:23:35.833Z,91896.53
2023-04-14T09:25:19.673Z,91861.09
2023-04-14T09:26:53.656Z,91905.53
2023-04-14T09:28:32.196Z,91861.63
2023-04-14T09:30:06.398Z,91876.28
2023-04-14T09:31:38.233Z,91893.38
2023-04-14T09:33:26.846Z,91866.59
2023-04-14T09:35:01.423Z,91891.06
2023-04-14T09:36:33.703Z,91884.38
2023-04-14T09:38:05.477Z,91895.91
2023-04-14T09:40:14.720Z,91931.84
2023-04-14T09:41:49.332Z,91888.44
2023-04-14T09:43:44.480Z,91895.38
2023-04-14T09:45:20.491Z,91917.44
2023-04-14T09:46:58.783Z,91893.84
2023-04-14T09:48:30.712Z,91902.88
2023-04-14T09:50:07.237Z,91932.44
2023-04-14T09:51:38.889Z,91901.31
2023-04-14T09:53:11.385Z,91915.22
2023-04-14T09:54:43.276Z,91920.94
2023-04-14T09:56:15.100Z,91908.84
2023-04-14T09:57:47.853Z,91923.50
2023-04-14T09:59:35.563Z,91975.75
2023-04-14T10:01:14.416Z,91951.19
2023-04-14T10:03:03.572Z,91975.50
2023-04-14T10:07:13.594Z,91993.03
2023-04-14T10:10:48.257Z,92007.69
2023-04-14T10:12:21.981Z,92017.25
2023-04-14T10:13:54.989Z,92055.38
2023-04-14T10:15:31.192Z,92039.31
2023-04-14T10:17:07.876Z,92090.75
2023-04-14T10:18:40.318Z,92067.41
2023-04-14T10:20:12.930Z,92093.59
2023-04-14T10:21:46.611Z,92101.13
2023-04-14T10:23:18.439Z,92096.88
2023-04-14T10:24:56.589Z,92125.50
2023-04-14T10:26:43.026Z,92126.13
2023-04-14T10:28:23.711Z,92132.56
2023-04-14T10:29:55.529Z,92131.94
2023-04-14T10:31:28.933Z,92134.00
2023-04-14T10:33:00.618Z,92138.88
2023-04-14T10:34:35.450Z,92135.81
2023-04-14T10:36:07.230Z,92131.75
2023-04-14T10:37:39.022Z,92148.97
2023-04-14T10:39:11.884Z,92145.03
2023-04-14T10:41:00.614Z,92150.66
2023-04-14T10:43:09.209Z,92142.75
2023-04-14T10:44:41.807Z,92137.06
2023-04-14T10:46:18.031Z,92143.44
2023-04-14T10:47:50.554Z,92147.63
2023-04-14T10:49:24.247Z,92140.50
2023-04-14T10:51:00.934Z,92152.81
2023-04-14T10:53:04.645Z,92160.31
2023-04-14T10:55:40.158Z,92154.34
2023-04-14T10:57:23.561Z,92162.72
2023-04-14T10:58:56.606Z,92166.59
2023-04-14T11:00:28.553Z,92173.53
2023-04-14T11:02:00.949Z,92186.69
2023-04-14T11:03:33.468Z,92180.09
2023-04-14T11:05:10.698Z,92191.94
2023-04-14T11:06:48.364Z,92183.75
2023-04-14T11:08:26.094Z,92186.03
2023-04-14T11:10:05.539Z,92186.63
2023-04-14T11:11:37.799Z,92195.16
2023-04-14T11:16:05.924Z,92197.97
2023-04-14T11:20:00.990Z,92212.22
2023-04-14T11:21:35.579Z,92208.03
2023-04-14T11:23:07.232Z,92215.44
2023-04-14T11:23:16.729Z,92194.72
2023-04-14T11:24:40.909Z,92220.91
2023-04-14T11:26:14.467Z,92230.50
2023-04-14T11:27:47.426Z,92242.69
2023-04-14T11:29:20.008Z,92250.38
2023-04-14T11:30:52.116Z,92251.81
2023-04-14T11:32:24.109Z,92254.00
2023-04-14T11:33:56.981Z,92257.09
2023-04-14T11:35:35.380Z,92254.66
2023-04-14T11:37:16.546Z,92262.81
2023-04-14T11:38:51.338Z,92274.69
2023-04-14T11:40:23.855Z,92278.19
2023-04-14T11:41:57.162Z,92264.19
2023-04-14T11:43:32.054Z,92277.56
2023-04-14T11:45:19.780Z,92280.16
2023-04-14T11:49:29.390Z,92290.03
2023-04-14T11:53:28.543Z,92279.66
2023-04-14T11:55:50.692Z,92286.16
2023-04-14T11:57:30.520Z,92292.81
2023-04-14T11:59:28.176Z,92286.50
2023-04-14T12:01:13.768Z,92292.81
2023-04-14T12:03:11.180Z,92297.72
2023-04-14T12:03:20.102Z,92285.16
2023-04-14T12:05:07.001Z,92297.88
2023-04-14T12:30:10.672Z,92352.00
2023-04-14T12:32:03.420Z,92355.50
2023-04-14T12:35:38.116Z,92372.09
2023-04-14T12:37:22.954Z,92381.13
2023-04-14T12:38:57.764Z,92376.19
2023-04-14T12:41:35.923Z,92373.81
2023-04-14T12:43:39.364Z,92380.72
2023-04-14T12:45:14.876Z,92372.66
2023-04-14T12:47:02.891Z,92383.25
2023-04-14T12:48:49.589Z,92374.41
2023-04-14T12:50:35.351Z,92381.19
2023-04-14T12:52:45.867Z,92384.38
2023-04-14T12:54:42.231Z,92388.16
2023-04-14T12:58:24.412Z,92404.44
2023-04-14T13:01:06.549Z,92395.59
2023-04-14T13:07:00.523Z,92366.81
2023-04-14T13:08:44.294Z,92367.59
2023-04-14T13:10:19.369Z,92366.78
2023-04-14T13:11:51.854Z,92366.09
2023-04-14T13:13:38.676Z,92362.28
2023-04-14T13:16:12.297Z,92352.94
2023-04-14T13:17:03.761Z,92357.16
2023-04-14T13:18:35.984Z,92353.03
2023-04-14T13:20:08.540Z,92354.13
2023-04-14T13:21:46.338Z,92354.00
2023-04-14T13:23:23.612Z,92356.34
2023-04-14T13:25:00.818Z,92339.31
2023-04-14T13:26:33.182Z,92340.13
2023-04-14T13:28:05.012Z,92314.59
2023-04-14T13:29:39.637Z,92282.09
2023-04-14T13:31:25.265Z,92279.59
2023-04-14T13:34:49.133Z,92259.91
2023-04-14T13:36:31.307Z,92266.06
2023-04-14T13:38:07.682Z,92260.22
2023-04-14T13:39:42.275Z,92281.06
2023-04-14T13:41:15.888Z,92291.13
2023-04-14T13:42:49.013Z,92283.09
2023-04-14T13:44:20.875Z,92261.34
2023-04-14T13:45:53.147Z,92257.25
2023-04-14T13:47:40.326Z,92248.91
2023-04-14T13:49:15.852Z,92239.59
2023-04-14T13:50:47.788Z,92269.88
2023-04-14T13:52:27.714Z,92263.22
2023-04-14T13:54:00.528Z,92260.25
2023-04-14T13:55:34.489Z,92273.97
2023-04-14T13:57:07.130Z,92229.81
2023-04-14T13:58:40.872Z,92234.56
2023-04-14T14:00:18.810Z,92197.47
2023-04-14T14:01:51.873Z,92221.16
2023-04-14T14:03:29.815Z,92207.59
2023-04-14T14:05:04.552Z,92211.06
2023-04-14T14:06:40.773Z,92239.44
2023-04-14T14:08:15.342Z,92208.88
2023-04-14T14:09:52.814Z,92212.66
2023-04-14T14:11:25.442Z,92242.31
2023-04-14T14:12:58.917Z,92238.69
2023-04-14T14:14:33.621Z,92237.59
2023-04-14T14:16:07.145Z,92229.22
2023-04-14T14:17:41.392Z,92227.66
2023-04-14T14:19:17.046Z,92248.03
2023-04-14T14:20:48.913Z,92258.59
2023-04-14T14:22:23.089Z,92253.56
2023-04-14T14:23:54.998Z,92246.91
2023-04-14T14:25:26.642Z,92237.56
2023-04-14T14:26:58.780Z,92238.53
2023-04-14T14:28:30.571Z,92248.00
2023-04-14T14:30:02.559Z,92248.31
2023-04-14T14:31:34.844Z,92266.59
2023-04-14T14:33:06.588Z,92259.66
2023-04-14T14:34:39.549Z,92256.47
2023-04-14T14:36:11.853Z,92241.31
2023-04-14T14:37:45.215Z,92246.81
2023-04-14T14:39:20.141Z,92252.03
2023-04-14T14:40:52.240Z,92246.34
2023-04-14T14:42:24.201Z,92237.28
2023-04-14T14:43:56.155Z,92232.22
2023-04-14T14:45:37.188Z,92233.31
2023-04-14T14:47:09.304Z,92227.56
2023-04-14T14:48:41.192Z,92222.34
2023-04-14T14:50:13.058Z,92225.03
2023-04-14T14:51:44.951Z,92224.25
2023-04-14T14:53:16.885Z,92225.97
2023-04-14T14:54:49.199Z,92221.16
2023-04-14T14:56:21.129Z,92229.47
2023-04-14T14:57:52.839Z,92234.16
2023-04-14T14:59:24.567Z,92224.59
2023-04-14T15:00:56.572Z,92212.97
2023-04-14T15:02:30.477Z,92209.41
2023-04-14T15:04:06.752Z,92203.47
2023-04-14T15:06:37.893Z,92204.63
2023-04-14T15:13:56.704Z,92232.41
2023-04-14T15:15:29.301Z,92229.13
2023-04-14T15:17:01.303Z,92234.31
2023-04-14T15:18:33.278Z,92230.56
2023-04-14T15:20:06.078Z,92223.59
2023-04-14T15:21:38.285Z,92225.72
2023-04-14T15:23:10.000Z,92229.19
2023-04-14T15:24:41.667Z,92229.84
2023-04-14T15:26:14.349Z,92228.06
2023-04-14T15:27:46.608Z,92225.69
2023-04-14T15:29:19.597Z,92228.03
2023-04-14T15:30:51.334Z,92220.31
2023-04-14T15:32:26.753Z,92220.72
2023-04-14T15:34:02.429Z,92214.72
2023-04-14T15:35:38.822Z,92215.53
2023-04-14T15:37:11.115Z,92211.81
2023-04-14T15:38:43.065Z,92205.97
2023-04-14T15:40:18.677Z,92210.50
2023-04-14T15:41:51.580Z,92204.09
2023-04-14T15:43:23.688Z,92194.81
2023-04-14T15:44:58.191Z,92194.38
2023-04-14T15:46:30.469Z,92192.03
2023-04-14T15:48:19.723Z,92195.50
2023-04-14T15:50:18.854Z,92187.28
2023-04-14T15:51:57.935Z,92186.63
2023-04-14T15:53:33.390Z,92187.28
2023-04-14T15:55:30.029Z,92188.69
2023-04-14T15:57:07.870Z,92186.66
2023-04-14T15:58:50.070Z,92181.81
2023-04-14T16:04:20.511Z,92178.03
2023-04-14T16:06:04.849Z,92180.81
2023-04-14T16:07:36.795Z,92190.50
2023-04-14T16:09:08.696Z,92187.38
2023-04-14T16:10:44.066Z,92189.19
2023-04-14T16:12:18.152Z,92188.19
2023-04-14T16:13:50.170Z,92187.94
2023-04-14T16:15:25.109Z,92189.88
2023-04-14T16:16:58.588Z,92192.56
2023-04-14T16:18:30.370Z,92195.72
2023-04-14T16:20:04.686Z,92191.69
2023-04-14T16:21:36.436Z,92190.69
2023-04-14T16:23:08.217Z,92194.03
2023-04-14T16:24:41.377Z,92184.25
2023-04-14T16:26:16.171Z,92181.78
2023-04-14T16:27:48.671Z,92182.22
2023-04-14T16:29:20.664Z,92173.25
2023-04-14T16:31:02.152Z,92172.78
2023-04-14T16:32:34.240Z,92164.47
2023-04-14T16:34:06.259Z,92163.78
2023-04-14T16:35:38.544Z,92162.56
2023-04-14T16:37:10.360Z,92160.16
2023-04-14T16:38:42.428Z,92154.94
2023-04-14T16:40:39.503Z,92153.38
2023-04-14T16:42:14.491Z,92144.16
2023-04-14T16:43:46.352Z,92142.91
2023-04-14T16:45:20.334Z,92145.56
2023-04-14T16:46:55.020Z,92135.84
2023-04-14T16:48:29.544Z,92133.81
2023-04-14T16:50:04.421Z,92137.94
2023-04-14T16:51:47.163Z,92133.66
2023-04-14T16:53:19.243Z,92130.69
2023-04-14T16:54:53.108Z,92131.22
2023-04-14T16:57:30.278Z,92127.94
2023-04-14T17:01:41.590Z,92115.44
2023-04-14T17:03:20.868Z,92117.50
2023-04-14T17:04:53.478Z,92121.78
2023-04-14T17:08:09.834Z,92117.97
2023-04-14T17:09:42.113Z,92125.00
2023-04-14T17:11:15.190Z,92118.50
2023-04-14T17:12:47.559Z,92119.72
2023-04-14T17:14:26.384Z,92107.88
2023-04-14T17:16:06.111Z,92113.25
2023-04-14T17:17:50.018Z,92115.03
2023-04-14T17:19:25.733Z,92129.59
2023-04-14T17:20:57.492Z,92127.22
2023-04-14T17:22:29.134Z,92131.50
2023-04-14T17:24:01.318Z,92134.97
2023-04-14T17:25:33.763Z,92135.88
2023-04-14T17:27:05.633Z,92145.13
2023-04-14T17:28:38.748Z,92137.19
2023-04-14T17:30:11.608Z,92156.47
2023-04-14T17:31:44.584Z,92158.31
2023-04-14T17:33:18.034Z,92153.41
2023-04-14T17:34:50.422Z,92158.44
2023-04-14T17:36:23.100Z,92154.97
2023-04-14T17:37:56.474Z,92154.03
2023-04-14T17:39:28.762Z,92159.44
2023-04-14T17:41:01.360Z,92162.44
2023-04-14T17:42:34.553Z,92169.41
2023-04-14T17:44:07.011Z,92165.13
2023-04-14T17:45:40.231Z,92168.97
2023-04-14T17:47:15.790Z,92161.69
2023-04-14T17:48:47.516Z,92164.22
2023-04-14T17:50:19.934Z,92168.97
2023-04-14T17:51:51.572Z,92162.31
2023-04-14T17:53:23.228Z,92168.81
2023-04-14T17:54:54.982Z,92172.75
2023-04-14T17:56:26.743Z,92181.25
2023-04-14T17:57:58.796Z,92180.84
2023-04-14T17:59:30.652Z,92186.66
2023-04-14T18:01:02.307Z,92181.63
2023-04-14T18:02:37.277Z,92182.41
2023-04-14T18:04:09.071Z,92181.16
2023-04-14T18:05:41.544Z,92193.34
2023-04-14T18:07:13.427Z,92185.91
2023-04-14T18:08:50.011Z,92185.97
2023-04-14T18:10:25.853Z,92190.31
2023-04-14T18:11:58.157Z,92193.00
2023-04-14T18:13:30.264Z,92195.38
2023-04-14T18:15:02.246Z,92197.75
2023-04-14T18:16:34.301Z,92185.00
2023-04-14T18:18:06.384Z,92189.63
2023-04-14T18:19:38.654Z,92197.25
2023-04-14T18:21:10.669Z,92195.72
2023-04-14T18:22:43.564Z,92193.53
2023-04-14T18:29:09.173Z,92196.31
2023-04-14T18:30:41.365Z,92198.38
2023-04-14T18:32:14.004Z,92192.22
2023-04-14T18:33:45.972Z,92194.78
2023-04-14T18:35:17.775Z,92193.66
2023-04-14T18:36:49.966Z,92188.78
2023-04-14T18:38:22.000Z,92187.72
2023-04-14T18:39:54.135Z,92186.13
2023-04-14T18:41:26.045Z,92185.84
2023-04-14T18:42:57.793Z,92188.53
2023-04-14T18:44:29.932Z,92180.81
2023-04-14T18:46:01.693Z,92188.41
2023-04-14T18:47:34.289Z,92186.16
2023-04-14T18:49:06.016Z,92188.50
2023-04-14T18:50:37.718Z,92191.34
2023-04-14T18:52:09.809Z,92191.50
2023-04-14T18:53:44.137Z,92185.66
2023-04-14T18:55:15.873Z,92180.63
2023-04-14T18:56:47.957Z,92185.50
2023-04-14T18:58:19.935Z,92192.75
2023-04-14T18:59:51.559Z,92183.28
2023-04-14T19:01:23.383Z,92176.53
2023-04-14T19:02:56.806Z,92173.38
2023-04-14T19:04:29.099Z,92170.19
2023-04-14T19:06:00.793Z,92177.47
2023-04-14T19:07:32.804Z,92181.72
2023-04-14T19:09:04.907Z,92184.56
2023-04-14T19:10:37.598Z,92180.63
2023-04-14T19:12:18.420Z,92181.72
2023-04-14T19:13:57.020Z,92188.66
2023-04-14T19:15:28.810Z,92185.50
2023-04-14T19:17:00.876Z,92186.47
2023-04-14T19:18:32.970Z,92202.69
2023-04-14T19:20:05.430Z,92188.50
2023-04-14T19:21:37.218Z,92195.28
2023-04-14T19:23:09.102Z,92204.72
2023-04-14T19:24:41.826Z,92201.09
2023-04-14T19:26:31.230Z,92204.09
2023-04-14T19:28:04.970Z,92200.16
2023-04-14T19:29:36.960Z,92199.50
2023-04-14T19:31:17.803Z,92206.00
2023-04-14T19:33:01.779Z,92196.84
2023-04-14T19:34:50.706Z,92207.41
2023-04-14T19:37:08.089Z,92196.53
2023-04-14T19:38:41.718Z,92198.56
2023-04-14T19:40:14.491Z,92199.50
2023-04-14T19:41:47.058Z,92202.19
2023-04-14T19:43:20.334Z,92204.56
2023-04-14T19:44:52.525Z,92190.84
2023-04-14T19:46:24.648Z,92200.91
2023-04-14T19:47:56.389Z,92204.56
2023-04-14T19:49:28.616Z,92200.28
2023-04-14T19:51:00.479Z,92202.66
2023-04-14T19:52:32.377Z,92203.59
2023-04-14T19:54:05.756Z,92209.28
2023-04-14T19:55:37.618Z,92204.25
2023-04-14T19:57:10.856Z,92193.53
2023-04-14T19:58:43.733Z,92197.63
2023-04-14T20:00:17.085Z,92199.03
2023-04-14T20:01:50.826Z,92194.94
2023-04-14T20:03:22.779Z,92199.19
2023-04-14T20:04:54.682Z,92198.25
2023-04-14T20:06:27.034Z,92197.94
2023-04-14T20:07:59.147Z,92197.31
2023-04-14T20:09:31.008Z,92200.66
2023-04-14T20:11:02.939Z,92202.38
2023-04-14T20:12:34.944Z,92195.72
2023-04-14T20:14:06.859Z,92199.84
2023-04-14T20:15:38.544Z,92201.25
2023-04-14T20:17:10.364Z,92203.47
2023-04-14T20:18:45.855Z,92205.84
2023-04-14T20:20:18.125Z,92208.81
2023-04-14T20:21:49.975Z,92205.03
2023-04-14T20:23:21.992Z,92207.84
2023-04-14T20:24:53.888Z,92205.81
2023-04-14T20:26:25.633Z,92203.47
2023-04-14T20:27:57.750Z,92206.13
2023-04-14T20:29:38.476Z,92203.75
2023-04-14T20:31:22.867Z,92203.09
2023-04-14T20:33:10.687Z,92212.28
2023-04-14T20:35:23.873Z,92214.78
2023-04-14T20:36:57.096Z,92213.03
2023-04-14T20:39:23.860Z,92216.50
2023-04-14T20:41:01.290Z,92220.13
2023-04-14T20:42:33.761Z,92223.41